sensor_id;sensor_type;location;lat;lon;timestamp;pressure;altitude;pressure_sealevel;temperature;humidity
48810;BME280;40070;47.322;18.784;2022-08-21T00:01:13;997.11;;;21.16;71.35
48810;BME280;40070;47.322;18.784;2022-08-21T00:03:16;997.00;;;21.19;71.45
48810;BME280;40070;47.322;18.784;2022-08-21T00:05:17;996.99;;;21.21;71.54
48810;BME280;40070;47.322;18.784;2022-08-21T00:07:18;996.97;;;21.00;72.02
48810;BME280;40070;47.322;18.784;2022-08-21T00:09:19;996.96;;;21.12;71.96
48810;BME280;40070;47.322;18.784;2022-08-21T00:11:20;996.97;;;21.20;71.18
48810;BME280;40070;47.322;18.784;2022-08-21T00:13:21;996.97;;;21.21;71.32
48810;BME280;40070;47.322;18.784;2022-08-21T00:15:24;996.94;;;21.06;71.44
48810;BME280;40070;47.322;18.784;2022-08-21T00:17:25;996.93;;;20.88;72.28
48810;BME280;40070;47.322;18.784;2022-08-21T00:19:26;996.94;;;20.88;72.21
48810;BME280;40070;47.322;18.784;2022-08-21T00:21:27;996.92;;;21.01;71.46
48810;BME280;40070;47.322;18.784;2022-08-21T00:23:28;996.90;;;20.96;71.57
48810;BME280;40070;47.322;18.784;2022-08-21T00:25:29;996.94;;;20.86;71.69
48810;BME280;40070;47.322;18.784;2022-08-21T00:27:30;996.93;;;20.97;71.33
48810;BME280;40070;47.322;18.784;2022-08-21T00:29:31;996.96;;;21.17;71.02
48810;BME280;40070;47.322;18.784;2022-08-21T00:31:32;996.94;;;21.21;70.44
48810;BME280;40070;47.322;18.784;2022-08-21T00:33:32;996.93;;;21.20;70.29
48810;BME280;40070;47.322;18.784;2022-08-21T00:35:35;996.91;;;20.96;71.04
48810;BME280;40070;47.322;18.784;2022-08-21T00:37:36;996.97;;;20.83;71.58
48810;BME280;40070;47.322;18.784;2022-08-21T00:39:37;997.00;;;20.97;71.04
48810;BME280;40070;47.322;18.784;2022-08-21T00:41:38;996.93;;;20.80;71.43
48810;BME280;40070;47.322;18.784;2022-08-21T00:43:39;996.93;;;20.67;71.82
48810;BME280;40070;47.322;18.784;2022-08-21T00:45:40;996.94;;;20.83;71.30
48810;BME280;40070;47.322;18.784;2022-08-21T00:47:41;996.89;;;20.81;71.43
48810;BME280;40070;47.322;18.784;2022-08-21T00:49:42;996.83;;;20.84;71.28
48810;BME280;40070;47.322;18.784;2022-08-21T00:51:50;996.85;;;20.77;71.37
48810;BME280;40070;47.322;18.784;2022-08-21T00:53:53;996.82;;;20.87;71.13
48810;BME280;40070;47.322;18.784;2022-08-21T00:55:55;996.86;;;20.88;71.05
48810;BME280;40070;47.322;18.784;2022-08-21T00:57:57;996.92;;;20.70;71.58
48810;BME280;40070;47.322;18.784;2022-08-21T01:00:00;996.86;;;20.76;71.43
48810;BME280;40070;47.322;18.784;2022-08-21T01:02:02;996.79;;;20.65;71.91
48810;BME280;40070;47.322;18.784;2022-08-21T01:04:03;996.76;;;20.67;71.76
48810;BME280;40070;47.322;18.784;2022-08-21T01:06:04;996.79;;;20.72;71.75
48810;BME280;40070;47.322;18.784;2022-08-21T01:08:06;996.73;;;20.44;72.58
48810;BME280;40070;47.322;18.784;2022-08-21T01:10:08;996.75;;;20.60;72.34
48810;BME280;40070;47.322;18.784;2022-08-21T01:12:09;996.69;;;20.69;71.82
48810;BME280;40070;47.322;18.784;2022-08-21T01:14:11;996.77;;;20.87;71.06
48810;BME280;40070;47.322;18.784;2022-08-21T01:18:13;996.79;;;20.74;71.75
48810;BME280;40070;47.322;18.784;2022-08-21T01:20:15;996.80;;;20.77;71.52
48810;BME280;40070;47.322;18.784;2022-08-21T01:22:16;996.82;;;20.77;71.29
48810;BME280;40070;47.322;18.784;2022-08-21T01:24:17;996.79;;;20.73;71.57
48810;BME280;40070;47.322;18.784;2022-08-21T01:26:20;996.78;;;20.63;71.86
48810;BME280;40070;47.322;18.784;2022-08-21T01:28:22;996.79;;;20.74;71.55
48810;BME280;40070;47.322;18.784;2022-08-21T01:30:24;996.80;;;20.78;71.44
48810;BME280;40070;47.322;18.784;2022-08-21T01:32:25;996.76;;;20.62;71.85
48810;BME280;40070;47.322;18.784;2022-08-21T01:34:26;996.71;;;20.49;72.58
48810;BME280;40070;47.322;18.784;2022-08-21T01:36:27;996.74;;;20.52;72.86
48810;BME280;40070;47.322;18.784;2022-08-21T01:38:28;996.77;;;20.65;72.23
48810;BME280;40070;47.322;18.784;2022-08-21T01:40:29;996.73;;;20.58;72.36
48810;BME280;40070;47.322;18.784;2022-08-21T01:42:32;996.68;;;20.63;72.27
48810;BME280;40070;47.322;18.784;2022-08-21T01:44:33;996.66;;;20.65;72.31
48810;BME280;40070;47.322;18.784;2022-08-21T01:46:34;996.68;;;20.84;71.59
48810;BME280;40070;47.322;18.784;2022-08-21T01:48:35;996.65;;;20.95;71.18
48810;BME280;40070;47.322;18.784;2022-08-21T01:50:36;996.59;;;20.92;71.03
48810;BME280;40070;47.322;18.784;2022-08-21T01:52:37;996.58;;;20.69;72.05
48810;BME280;40070;47.322;18.784;2022-08-21T01:54:38;996.58;;;20.68;72.38
48810;BME280;40070;47.322;18.784;2022-08-21T01:56:43;996.53;;;20.63;72.66
48810;BME280;40070;47.322;18.784;2022-08-21T01:58:47;996.49;;;20.59;72.73
48810;BME280;40070;47.322;18.784;2022-08-21T02:00:48;996.49;;;20.55;73.06
48810;BME280;40070;47.322;18.784;2022-08-21T02:02:49;996.49;;;20.53;73.23
48810;BME280;40070;47.322;18.784;2022-08-21T02:04:50;996.51;;;20.64;72.59
48810;BME280;40070;47.322;18.784;2022-08-21T02:06:51;996.51;;;20.72;72.65
48810;BME280;40070;47.322;18.784;2022-08-21T02:08:52;996.52;;;20.68;72.85
48810;BME280;40070;47.322;18.784;2022-08-21T02:10:54;996.54;;;20.86;72.19
48810;BME280;40070;47.322;18.784;2022-08-21T02:12:56;996.50;;;20.74;72.49
48810;BME280;40070;47.322;18.784;2022-08-21T02:14:57;996.51;;;20.81;72.39
48810;BME280;40070;47.322;18.784;2022-08-21T02:16:58;996.53;;;20.79;72.34
48810;BME280;40070;47.322;18.784;2022-08-21T02:19:00;996.51;;;20.66;73.04
48810;BME280;40070;47.322;18.784;2022-08-21T02:21:01;996.55;;;20.72;72.82
48810;BME280;40070;47.322;18.784;2022-08-21T02:23:05;996.56;;;20.71;72.42
48810;BME280;40070;47.322;18.784;2022-08-21T02:25:07;996.59;;;20.92;71.83
48810;BME280;40070;47.322;18.784;2022-08-21T02:27:08;996.56;;;20.78;71.93
48810;BME280;40070;47.322;18.784;2022-08-21T02:29:09;996.52;;;20.79;71.82
48810;BME280;40070;47.322;18.784;2022-08-21T02:31:09;996.51;;;20.76;72.14
48810;BME280;40070;47.322;18.784;2022-08-21T02:33:10;996.45;;;20.60;72.33
48810;BME280;40070;47.322;18.784;2022-08-21T02:35:12;996.47;;;20.58;72.64
48810;BME280;40070;47.322;18.784;2022-08-21T02:37:13;996.47;;;20.46;72.87
48810;BME280;40070;47.322;18.784;2022-08-21T02:39:13;996.45;;;20.39;73.70
48810;BME280;40070;47.322;18.784;2022-08-21T02:41:16;996.47;;;20.45;73.17
48810;BME280;40070;47.322;18.784;2022-08-21T02:43:18;996.45;;;20.51;72.97
48810;BME280;40070;47.322;18.784;2022-08-21T02:45:19;996.44;;;20.73;72.12
48810;BME280;40070;47.322;18.784;2022-08-21T02:47:20;996.43;;;20.56;72.91
48810;BME280;40070;47.322;18.784;2022-08-21T02:49:21;996.46;;;20.70;72.33
48810;BME280;40070;47.322;18.784;2022-08-21T02:51:22;996.44;;;20.60;72.60
48810;BME280;40070;47.322;18.784;2022-08-21T02:53:23;996.42;;;20.66;72.45
48810;BME280;40070;47.322;18.784;2022-08-21T02:55:25;996.42;;;20.51;72.75
48810;BME280;40070;47.322;18.784;2022-08-21T02:57:26;996.43;;;20.56;72.74
48810;BME280;40070;47.322;18.784;2022-08-21T02:59:28;996.44;;;20.75;72.05
48810;BME280;40070;47.322;18.784;2022-08-21T03:01:29;996.49;;;20.61;72.46
48810;BME280;40070;47.322;18.784;2022-08-21T03:03:30;996.49;;;20.71;72.44
48810;BME280;40070;47.322;18.784;2022-08-21T03:05:31;996.48;;;20.61;72.28
48810;BME280;40070;47.322;18.784;2022-08-21T03:07:33;996.45;;;20.71;72.27
48810;BME280;40070;47.322;18.784;2022-08-21T03:09:33;996.47;;;20.66;72.14
48810;BME280;40070;47.322;18.784;2022-08-21T03:11:34;996.43;;;20.59;72.48
48810;BME280;40070;47.322;18.784;2022-08-21T03:13:36;996.40;;;20.52;72.77
48810;BME280;40070;47.322;18.784;2022-08-21T03:15:37;996.41;;;20.59;72.63
48810;BME280;40070;47.322;18.784;2022-08-21T03:17:38;996.39;;;20.77;72.45
48810;BME280;40070;47.322;18.784;2022-08-21T03:19:40;996.38;;;20.87;71.55
48810;BME280;40070;47.322;18.784;2022-08-21T03:21:40;996.41;;;20.90;71.20
48810;BME280;40070;47.322;18.784;2022-08-21T03:23:41;996.43;;;20.90;71.39
48810;BME280;40070;47.322;18.784;2022-08-21T03:25:42;996.47;;;20.68;71.78
48810;BME280;40070;47.322;18.784;2022-08-21T03:27:43;996.50;;;20.83;71.20
48810;BME280;40070;47.322;18.784;2022-08-21T03:29:45;996.56;;;20.74;71.88
48810;BME280;40070;47.322;18.784;2022-08-21T03:31:46;996.56;;;20.89;71.06
48810;BME280;40070;47.322;18.784;2022-08-21T03:33:47;996.62;;;20.98;71.09
48810;BME280;40070;47.322;18.784;2022-08-21T03:35:52;996.64;;;20.90;71.61
48810;BME280;40070;47.322;18.784;2022-08-21T03:37:55;996.68;;;20.79;71.46
48810;BME280;40070;47.322;18.784;2022-08-21T03:39:56;996.72;;;20.81;71.40
48810;BME280;40070;47.322;18.784;2022-08-21T03:41:57;996.69;;;20.96;70.91
48810;BME280;40070;47.322;18.784;2022-08-21T03:43:58;996.70;;;21.04;70.93
48810;BME280;40070;47.322;18.784;2022-08-21T03:46:02;996.67;;;20.89;71.07
48810;BME280;40070;47.322;18.784;2022-08-21T03:48:04;996.66;;;21.00;70.93
48810;BME280;40070;47.322;18.784;2022-08-21T03:50:05;996.70;;;20.77;71.88
48810;BME280;40070;47.322;18.784;2022-08-21T03:52:06;996.73;;;21.05;71.09
48810;BME280;40070;47.322;18.784;2022-08-21T03:54:07;996.70;;;20.71;71.74
48810;BME280;40070;47.322;18.784;2022-08-21T03:56:08;996.71;;;20.70;72.02
48810;BME280;40070;47.322;18.784;2022-08-21T03:58:09;996.75;;;20.79;72.17
48810;BME280;40070;47.322;18.784;2022-08-21T04:00:10;996.71;;;20.84;72.10
48810;BME280;40070;47.322;18.784;2022-08-21T04:02:11;996.71;;;20.91;71.50
48810;BME280;40070;47.322;18.784;2022-08-21T04:04:14;996.78;;;20.95;71.02
48810;BME280;40070;47.322;18.784;2022-08-21T04:06:16;996.80;;;21.07;70.72
48810;BME280;40070;47.322;18.784;2022-08-21T04:08:17;996.83;;;20.97;71.30
48810;BME280;40070;47.322;18.784;2022-08-21T04:10:18;996.79;;;20.73;72.06
48810;BME280;40070;47.322;18.784;2022-08-21T04:12:20;996.76;;;20.72;72.65
48810;BME280;40070;47.322;18.784;2022-08-21T04:14:21;996.81;;;20.63;72.81
48810;BME280;40070;47.322;18.784;2022-08-21T04:16:22;996.80;;;20.79;72.10
48810;BME280;40070;47.322;18.784;2022-08-21T04:18:23;996.78;;;20.83;71.90
48810;BME280;40070;47.322;18.784;2022-08-21T04:20:24;996.84;;;20.76;71.99
48810;BME280;40070;47.322;18.784;2022-08-21T04:22:25;996.82;;;20.89;71.45
48810;BME280;40070;47.322;18.784;2022-08-21T04:24:25;996.83;;;20.93;71.39
48810;BME280;40070;47.322;18.784;2022-08-21T04:26:26;996.82;;;20.89;71.16
48810;BME280;40070;47.322;18.784;2022-08-21T04:28:27;996.85;;;20.79;71.94
48810;BME280;40070;47.322;18.784;2022-08-21T04:30:28;996.85;;;20.88;71.63
48810;BME280;40070;47.322;18.784;2022-08-21T04:32:29;996.83;;;20.94;70.72
48810;BME280;40070;47.322;18.784;2022-08-21T04:34:30;996.87;;;20.75;71.74
48810;BME280;40070;47.322;18.784;2022-08-21T04:36:32;996.86;;;20.89;71.07
48810;BME280;40070;47.322;18.784;2022-08-21T04:38:33;996.90;;;20.98;71.01
48810;BME280;40070;47.322;18.784;2022-08-21T04:40:34;996.91;;;20.95;70.67
48810;BME280;40070;47.322;18.784;2022-08-21T04:42:41;996.93;;;20.79;70.87
48810;BME280;40070;47.322;18.784;2022-08-21T04:44:42;996.88;;;20.85;70.89
48810;BME280;40070;47.322;18.784;2022-08-21T04:46:43;996.92;;;20.94;70.34
48810;BME280;40070;47.322;18.784;2022-08-21T04:48:44;996.99;;;21.11;69.91
48810;BME280;40070;47.322;18.784;2022-08-21T04:50:46;996.96;;;21.08;70.01
48810;BME280;40070;47.322;18.784;2022-08-21T04:52:48;997.02;;;21.05;69.56
48810;BME280;40070;47.322;18.784;2022-08-21T04:54:49;997.05;;;20.81;70.21
48810;BME280;40070;47.322;18.784;2022-08-21T04:56:55;997.01;;;20.91;70.10
48810;BME280;40070;47.322;18.784;2022-08-21T04:58:57;997.02;;;20.92;70.11
48810;BME280;40070;47.322;18.784;2022-08-21T05:00:59;996.98;;;20.92;70.08
48810;BME280;40070;47.322;18.784;2022-08-21T05:03:01;997.04;;;21.03;69.77
48810;BME280;40070;47.322;18.784;2022-08-21T05:05:03;997.07;;;20.92;70.38
48810;BME280;40070;47.322;18.784;2022-08-21T05:07:05;997.10;;;20.96;70.48
48810;BME280;40070;47.322;18.784;2022-08-21T05:09:08;997.07;;;21.03;70.09
48810;BME280;40070;47.322;18.784;2022-08-21T05:11:10;997.04;;;20.89;70.06
48810;BME280;40070;47.322;18.784;2022-08-21T05:13:14;997.03;;;20.76;70.58
48810;BME280;40070;47.322;18.784;2022-08-21T05:15:15;997.06;;;20.88;70.06
48810;BME280;40070;47.322;18.784;2022-08-21T05:17:16;997.02;;;20.80;70.36
48810;BME280;40070;47.322;18.784;2022-08-21T05:19:17;997.08;;;20.81;70.47
48810;BME280;40070;47.322;18.784;2022-08-21T05:21:18;997.07;;;20.70;70.80
48810;BME280;40070;47.322;18.784;2022-08-21T05:23:19;997.00;;;20.60;70.62
48810;BME280;40070;47.322;18.784;2022-08-21T05:25:19;997.05;;;20.40;71.35
48810;BME280;40070;47.322;18.784;2022-08-21T05:27:20;997.01;;;20.31;72.03
48810;BME280;40070;47.322;18.784;2022-08-21T05:29:21;996.93;;;20.37;71.75
48810;BME280;40070;47.322;18.784;2022-08-21T05:31:22;996.95;;;20.35;71.73
48810;BME280;40070;47.322;18.784;2022-08-21T05:33:23;997.03;;;20.53;71.22
48810;BME280;40070;47.322;18.784;2022-08-21T05:35:24;997.02;;;20.55;71.03
48810;BME280;40070;47.322;18.784;2022-08-21T05:37:25;997.01;;;20.73;70.25
48810;BME280;40070;47.322;18.784;2022-08-21T05:39:26;997.05;;;20.72;70.49
48810;BME280;40070;47.322;18.784;2022-08-21T05:41:27;997.02;;;20.83;70.29
48810;BME280;40070;47.322;18.784;2022-08-21T05:43:28;997.02;;;20.77;70.22
48810;BME280;40070;47.322;18.784;2022-08-21T05:45:31;997.03;;;20.68;70.54
48810;BME280;40070;47.322;18.784;2022-08-21T05:47:32;996.99;;;20.67;70.85
48810;BME280;40070;47.322;18.784;2022-08-21T05:49:33;996.98;;;20.73;70.44
48810;BME280;40070;47.322;18.784;2022-08-21T05:51:34;996.96;;;20.93;69.94
48810;BME280;40070;47.322;18.784;2022-08-21T05:53:35;996.98;;;21.00;69.55
48810;BME280;40070;47.322;18.784;2022-08-21T05:55:36;997.01;;;20.89;70.00
48810;BME280;40070;47.322;18.784;2022-08-21T05:57:37;996.98;;;21.18;68.99
48810;BME280;40070;47.322;18.784;2022-08-21T05:59:38;996.99;;;21.10;69.20
48810;BME280;40070;47.322;18.784;2022-08-21T06:01:39;996.97;;;20.98;69.73
48810;BME280;40070;47.322;18.784;2022-08-21T06:03:40;996.98;;;21.11;69.51
48810;BME280;40070;47.322;18.784;2022-08-21T06:05:42;997.01;;;21.23;69.25
48810;BME280;40070;47.322;18.784;2022-08-21T06:07:43;996.97;;;21.30;68.97
48810;BME280;40070;47.322;18.784;2022-08-21T06:09:44;997.04;;;21.13;69.16
48810;BME280;40070;47.322;18.784;2022-08-21T06:11:45;997.03;;;21.28;68.59
48810;BME280;40070;47.322;18.784;2022-08-21T06:13:45;997.03;;;21.25;69.38
48810;BME280;40070;47.322;18.784;2022-08-21T06:15:47;997.07;;;21.35;68.75
48810;BME280;40070;47.322;18.784;2022-08-21T06:17:48;997.04;;;21.38;68.60
48810;BME280;40070;47.322;18.784;2022-08-21T06:19:52;997.08;;;21.34;68.67
48810;BME280;40070;47.322;18.784;2022-08-21T06:21:53;997.08;;;21.32;68.68
48810;BME280;40070;47.322;18.784;2022-08-21T06:23:54;997.10;;;21.35;68.53
48810;BME280;40070;47.322;18.784;2022-08-21T06:25:55;997.06;;;21.26;68.97
48810;BME280;40070;47.322;18.784;2022-08-21T06:28:00;997.09;;;21.21;68.97
48810;BME280;40070;47.322;18.784;2022-08-21T06:30:02;997.11;;;21.26;69.15
48810;BME280;40070;47.322;18.784;2022-08-21T06:32:03;997.16;;;21.28;68.86
48810;BME280;40070;47.322;18.784;2022-08-21T06:34:05;997.13;;;21.26;68.96
48810;BME280;40070;47.322;18.784;2022-08-21T06:36:06;997.12;;;21.37;68.83
48810;BME280;40070;47.322;18.784;2022-08-21T06:38:07;997.14;;;21.56;68.50
48810;BME280;40070;47.322;18.784;2022-08-21T06:40:08;997.08;;;21.86;67.71
48810;BME280;40070;47.322;18.784;2022-08-21T06:42:13;997.14;;;21.87;66.91
48810;BME280;40070;47.322;18.784;2022-08-21T06:44:15;997.07;;;21.91;66.57
48810;BME280;40070;47.322;18.784;2022-08-21T06:46:16;997.11;;;22.10;67.02
48810;BME280;40070;47.322;18.784;2022-08-21T06:48:17;997.05;;;22.34;66.11
48810;BME280;40070;47.322;18.784;2022-08-21T06:50:18;997.11;;;22.30;65.61
48810;BME280;40070;47.322;18.784;2022-08-21T06:52:19;997.12;;;22.09;66.12
48810;BME280;40070;47.322;18.784;2022-08-21T06:54:29;997.03;;;22.25;66.22
48810;BME280;40070;47.322;18.784;2022-08-21T06:56:30;997.15;;;22.28;66.08
48810;BME280;40070;47.322;18.784;2022-08-21T06:58:31;997.12;;;22.26;65.88
48810;BME280;40070;47.322;18.784;2022-08-21T07:00:32;997.08;;;22.23;66.06
48810;BME280;40070;47.322;18.784;2022-08-21T07:02:33;997.12;;;22.47;65.07
48810;BME280;40070;47.322;18.784;2022-08-21T07:04:33;997.12;;;22.47;65.49
48810;BME280;40070;47.322;18.784;2022-08-21T07:06:34;997.07;;;22.58;65.16
48810;BME280;40070;47.322;18.784;2022-08-21T07:08:36;997.07;;;22.60;64.91
48810;BME280;40070;47.322;18.784;2022-08-21T07:10:37;997.08;;;22.67;64.86
48810;BME280;40070;47.322;18.784;2022-08-21T07:12:38;997.10;;;22.50;64.74
48810;BME280;40070;47.322;18.784;2022-08-21T07:14:39;997.00;;;22.46;65.31
48810;BME280;40070;47.322;18.784;2022-08-21T07:16:40;997.03;;;22.58;65.02
48810;BME280;40070;47.322;18.784;2022-08-21T07:18:41;997.02;;;22.53;65.01
48810;BME280;40070;47.322;18.784;2022-08-21T07:20:42;997.04;;;22.79;64.35
48810;BME280;40070;47.322;18.784;2022-08-21T07:22:43;997.02;;;22.72;64.63
48810;BME280;40070;47.322;18.784;2022-08-21T07:24:44;996.99;;;22.73;65.10
48810;BME280;40070;47.322;18.784;2022-08-21T07:26:45;997.03;;;22.39;65.65
48810;BME280;40070;47.322;18.784;2022-08-21T07:28:46;997.00;;;22.68;64.72
48810;BME280;40070;47.322;18.784;2022-08-21T07:30:51;997.03;;;22.67;64.62
48810;BME280;40070;47.322;18.784;2022-08-21T07:32:53;997.02;;;22.54;65.15
48810;BME280;40070;47.322;18.784;2022-08-21T07:34:54;997.01;;;22.52;65.23
48810;BME280;40070;47.322;18.784;2022-08-21T07:36:55;996.92;;;22.56;65.12
48810;BME280;40070;47.322;18.784;2022-08-21T07:38:58;996.95;;;22.83;64.62
48810;BME280;40070;47.322;18.784;2022-08-21T07:41:00;996.92;;;22.66;65.16
48810;BME280;40070;47.322;18.784;2022-08-21T07:43:01;996.97;;;22.69;64.92
48810;BME280;40070;47.322;18.784;2022-08-21T07:45:02;996.90;;;22.83;64.65
48810;BME280;40070;47.322;18.784;2022-08-21T07:47:03;996.94;;;22.96;64.63
48810;BME280;40070;47.322;18.784;2022-08-21T07:49:04;996.97;;;22.93;65.00
48810;BME280;40070;47.322;18.784;2022-08-21T07:51:06;996.96;;;22.98;64.45
48810;BME280;40070;47.322;18.784;2022-08-21T07:53:07;996.97;;;23.34;63.84
48810;BME280;40070;47.322;18.784;2022-08-21T07:55:13;996.90;;;23.71;63.29
48810;BME280;40070;47.322;18.784;2022-08-21T07:57:14;996.86;;;23.85;62.69
48810;BME280;40070;47.322;18.784;2022-08-21T07:59:15;996.82;;;24.01;61.97
48810;BME280;40070;47.322;18.784;2022-08-21T08:01:16;996.81;;;24.00;62.12
48810;BME280;40070;47.322;18.784;2022-08-21T08:03:17;996.78;;;24.01;61.43
48810;BME280;40070;47.322;18.784;2022-08-21T08:05:18;996.77;;;23.80;61.81
48810;BME280;40070;47.322;18.784;2022-08-21T08:07:19;996.77;;;23.50;62.37
48810;BME280;40070;47.322;18.784;2022-08-21T08:09:20;996.77;;;23.62;62.70
48810;BME280;40070;47.322;18.784;2022-08-21T08:11:21;996.81;;;23.56;62.75
48810;BME280;40070;47.322;18.784;2022-08-21T08:13:22;996.84;;;23.60;62.52
48810;BME280;40070;47.322;18.784;2022-08-21T08:15:24;996.82;;;23.59;62.47
48810;BME280;40070;47.322;18.784;2022-08-21T08:17:25;996.86;;;23.56;62.58
48810;BME280;40070;47.322;18.784;2022-08-21T08:19:27;996.84;;;23.70;62.19
48810;BME280;40070;47.322;18.784;2022-08-21T08:21:28;996.80;;;23.84;62.32
48810;BME280;40070;47.322;18.784;2022-08-21T08:23:28;996.78;;;23.91;61.21
48810;BME280;40070;47.322;18.784;2022-08-21T08:25:29;996.76;;;23.98;61.22
48810;BME280;40070;47.322;18.784;2022-08-21T08:27:30;996.76;;;23.81;61.96
48810;BME280;40070;47.322;18.784;2022-08-21T08:29:31;996.78;;;23.76;62.21
48810;BME280;40070;47.322;18.784;2022-08-21T08:31:32;996.75;;;23.79;62.15
48810;BME280;40070;47.322;18.784;2022-08-21T08:33:33;996.74;;;24.12;61.57
48810;BME280;40070;47.322;18.784;2022-08-21T08:35:35;996.71;;;24.19;61.74
48810;BME280;40070;47.322;18.784;2022-08-21T08:37:36;996.76;;;24.13;60.80
48810;BME280;40070;47.322;18.784;2022-08-21T08:39:37;996.72;;;24.25;60.80
48810;BME280;40070;47.322;18.784;2022-08-21T08:41:38;996.66;;;24.33;60.89
48810;BME280;40070;47.322;18.784;2022-08-21T08:43:40;996.71;;;24.30;61.27
48810;BME280;40070;47.322;18.784;2022-08-21T08:45:44;996.72;;;24.37;60.86
48810;BME280;40070;47.322;18.784;2022-08-21T08:47:50;996.71;;;24.41;60.79
48810;BME280;40070;47.322;18.784;2022-08-21T08:49:55;996.69;;;24.39;60.27
48810;BME280;40070;47.322;18.784;2022-08-21T08:52:00;996.68;;;24.18;61.19
48810;BME280;40070;47.322;18.784;2022-08-21T08:54:02;996.77;;;24.56;60.25
48810;BME280;40070;47.322;18.784;2022-08-21T08:56:05;996.78;;;24.57;60.32
48810;BME280;40070;47.322;18.784;2022-08-21T08:58:06;996.77;;;24.49;60.64
48810;BME280;40070;47.322;18.784;2022-08-21T09:00:09;996.76;;;24.28;60.46
48810;BME280;40070;47.322;18.784;2022-08-21T09:02:13;996.70;;;24.35;60.73
48810;BME280;40070;47.322;18.784;2022-08-21T09:04:17;996.75;;;24.64;61.49
48810;BME280;40070;47.322;18.784;2022-08-21T09:06:28;996.77;;;24.61;59.85
48810;BME280;40070;47.322;18.784;2022-08-21T09:08:45;996.73;;;24.53;60.28
48810;BME280;40070;47.322;18.784;2022-08-21T09:10:57;996.74;;;24.73;60.06
48810;BME280;40070;47.322;18.784;2022-08-21T09:13:14;996.72;;;24.61;60.33
48810;BME280;40070;47.322;18.784;2022-08-21T09:15:26;996.71;;;24.83;59.62
48810;BME280;40070;47.322;18.784;2022-08-21T09:22:09;996.65;;;25.10;59.34
48810;BME280;40070;47.322;18.784;2022-08-21T09:26:36;996.69;;;24.90;58.92
48810;BME280;40070;47.322;18.784;2022-08-21T09:28:42;996.67;;;24.80;59.46
48810;BME280;40070;47.322;18.784;2022-08-21T09:30:43;996.65;;;25.04;58.95
48810;BME280;40070;47.322;18.784;2022-08-21T09:32:44;996.61;;;25.30;58.93
48810;BME280;40070;47.322;18.784;2022-08-21T09:37:15;996.64;;;25.58;57.67
48810;BME280;40070;47.322;18.784;2022-08-21T09:39:25;996.64;;;25.55;57.05
48810;BME280;40070;47.322;18.784;2022-08-21T09:41:29;996.52;;;25.81;56.65
48810;BME280;40070;47.322;18.784;2022-08-21T09:43:30;996.64;;;25.91;57.06
48810;BME280;40070;47.322;18.784;2022-08-21T09:45:32;996.61;;;26.05;55.61
48810;BME280;40070;47.322;18.784;2022-08-21T09:47:33;996.68;;;25.57;56.43
48810;BME280;40070;47.322;18.784;2022-08-21T09:49:35;996.72;;;25.27;57.43
48810;BME280;40070;47.322;18.784;2022-08-21T09:51:37;996.68;;;25.21;57.89
48810;BME280;40070;47.322;18.784;2022-08-21T09:53:38;996.71;;;25.06;58.42
48810;BME280;40070;47.322;18.784;2022-08-21T09:55:56;996.70;;;24.91;58.53
48810;BME280;40070;47.322;18.784;2022-08-21T09:57:57;996.79;;;24.71;59.16
48810;BME280;40070;47.322;18.784;2022-08-21T10:00:09;996.70;;;24.43;60.36
48810;BME280;40070;47.322;18.784;2022-08-21T10:04:36;996.73;;;24.76;59.84
48810;BME280;40070;47.322;18.784;2022-08-21T10:06:37;996.67;;;24.87;59.81
48810;BME280;40070;47.322;18.784;2022-08-21T10:08:39;996.68;;;25.05;59.02
48810;BME280;40070;47.322;18.784;2022-08-21T10:10:40;996.66;;;25.14;58.53
48810;BME280;40070;47.322;18.784;2022-08-21T10:12:44;996.67;;;25.16;58.65
48810;BME280;40070;47.322;18.784;2022-08-21T10:14:54;996.65;;;25.25;58.79
48810;BME280;40070;47.322;18.784;2022-08-21T10:17:04;996.66;;;25.18;58.41
48810;BME280;40070;47.322;18.784;2022-08-21T10:19:24;996.64;;;25.42;58.32
48810;BME280;40070;47.322;18.784;2022-08-21T10:26:06;996.63;;;25.45;57.76
48810;BME280;40070;47.322;18.784;2022-08-21T10:28:24;996.65;;;25.35;57.93
48810;BME280;40070;47.322;18.784;2022-08-21T10:30:33;996.59;;;25.46;57.76
48810;BME280;40070;47.322;18.784;2022-08-21T10:34:59;996.66;;;25.60;57.50
48810;BME280;40070;47.322;18.784;2022-08-21T10:37:20;996.68;;;25.43;58.09
48810;BME280;40070;47.322;18.784;2022-08-21T10:39:31;996.65;;;25.47;58.02
48810;BME280;40070;47.322;18.784;2022-08-21T10:46:08;996.59;;;25.18;58.30
48810;BME280;40070;47.322;18.784;2022-08-21T10:50:44;996.60;;;25.61;57.47
48810;BME280;40070;47.322;18.784;2022-08-21T10:52:54;996.62;;;25.53;57.72
48810;BME280;40070;47.322;18.784;2022-08-21T10:55:04;996.54;;;25.51;57.95
48810;BME280;40070;47.322;18.784;2022-08-21T10:57:09;996.57;;;25.43;57.50
48810;BME280;40070;47.322;18.784;2022-08-21T11:04:12;996.58;;;25.50;57.67
48810;BME280;40070;47.322;18.784;2022-08-21T11:06:14;996.56;;;25.41;57.59
48810;BME280;40070;47.322;18.784;2022-08-21T11:08:23;996.57;;;25.56;57.95
48810;BME280;40070;47.322;18.784;2022-08-21T11:10:27;996.56;;;25.61;57.57
48810;BME280;40070;47.322;18.784;2022-08-21T11:12:45;996.56;;;25.72;57.40
48810;BME280;40070;47.322;18.784;2022-08-21T11:17:10;996.51;;;25.75;57.00
48810;BME280;40070;47.322;18.784;2022-08-21T11:19:21;996.52;;;25.76;57.46
48810;BME280;40070;47.322;18.784;2022-08-21T11:21:33;996.49;;;25.49;57.67
48810;BME280;40070;47.322;18.784;2022-08-21T11:23:43;996.48;;;25.73;57.48
48810;BME280;40070;47.322;18.784;2022-08-21T11:25:47;996.57;;;25.42;58.28
48810;BME280;40070;47.322;18.784;2022-08-21T11:27:54;996.58;;;25.44;58.44
48810;BME280;40070;47.322;18.784;2022-08-21T11:29:58;996.56;;;25.39;58.11
48810;BME280;40070;47.322;18.784;2022-08-21T11:32:07;996.50;;;25.11;59.03